Porter, Oklahoma
Current Conditions -  °F | °C
As of 10:53 PM on Friday 19 Dec 2014 (Local Time) from KMKO Reporting Station
Haze Haze  
Wind Chill: 37°   Ceiling: 400
Heat Index: 40°   Visibility: 5mi
Dew Point: 38°   Wind: 5mph
Humidity: 93%   Direction: 330°NNW
Pressure: 30.25"   Gusts: NA
Location:  35.87°N, 95.52°W
Report Text: KMKO 200453Z AUTO 33004KT 5SM BR OVC004 04/03 A3025 RMK AO2 SLP244 T00440033
Loading
Personal Weather Stations






























Interactive Weather Map New forecast layout! Learn more

10-Day Weather Forecast

Advertisements
Track Severe Weather on mobile